Historical Weather Data
Okotoks
Hwy 2A and Milligan Dr

Date
ET inches
Rain inches
Temperature °C
Humidity
Avg
Wind kmh
Avg
Solar Wm2
Avg
High
Avg
Low
03/01/2021 0.04 0.00 11.8 4.1 -1.3 48 0.0 105
03/02/2021 0.04 0.00 7.4 -0.6 -7.8 64 0.0 116
03/03/2021 0.05 0.00 9.2 0.8 -6.7 56 0.0 134
03/04/2021 0.06 0.00 12.0 1.5 -6.7 56 0.0 157
03/05/2021 0.05 0.00 13.0 6.6 0.9 34 0.0 122
03/06/2021 0.03 0.00 8.1 2.0 -5.3 61 0.0 90
03/07/2021 0.05 0.00 7.7 -1.3 -9.2 60 0.0 152
03/08/2021 0.05 0.00 6.9 -1.5 -8.5 62 0.0 165
03/09/2021 0.05 0.00 6.2 -1.3 -8.3 66 0.0 168
03/10/2021 0.02 0.00 -3.2 -7.0 -12.4 70 0.0 85
03/11/2021 0.05 0.00 6.2 -5.4 -16.0 65 0.0 178
03/12/2021 0.07 0.00 15.6 2.6 -6.3 49 0.0 165
03/13/2021 0.07 0.00 14.9 4.5 -3.8 51 0.0 171
03/14/2021 0.08 0.00 17.5 6.7 -3.1 40 0.0 178
03/15/2021 0.06 0.00 7.1 0.4 -5.5 57 0.0 175
03/16/2021 0.07 0.00 9.1 -1.0 -9.0 66 0.0 191
03/17/2021 0.08 0.00 14.1 2.1 -8.4 53 0.0 189
03/18/2021 0.09 0.00 16.2 5.8 -5.9 42 0.0 184
03/19/2021 0.08 0.00 14.1 6.7 -1.6 42 0.0 179
03/20/2021 0.08 0.00 10.9 1.4 -8.1 47 0.0 199
03/21/2021 0.06 0.00 10.3 0.9 -4.1 51 0.0 152
03/22/2021 0.05 0.00 7.4 -0.3 -5.7 65 0.0 119
03/23/2021 0.07 0.00 5.1 -1.4 -6.1 72 0.0 210
03/24/2021 0.05 0.00 8.5 2.0 -6.6 58 0.0 114
03/25/2021 0.03 0.00 -0.6 -3.8 -6.2 87 0.0 109
03/26/2021 0.05 0.00 5.4 -1.3 -4.9 81 0.0 149
03/27/2021 0.08 0.00 13.3 3.9 -3.9 61 0.0 187
03/28/2021 0.09 0.00 13.9 6.1 -2.9 49 0.0 178
03/29/2021 0.06 0.00 -1.6 -6.1 -10.1 60 0.0 225
03/30/2021 0.07 0.00 4.7 -4.2 -13.3 51 0.0 231
03/31/2021 0.10 0.00 13.5 3.3 -7.1 42 0.0 221